sensor_id;sensor_type;location;lat;lon;timestamp;P1;durP1;ratioP1;P2;durP2;ratioP2
54307;SDS011;40208;39.778;2.710;2023-09-18T00:02:16;69.70;;;10.82;;
54307;SDS011;40208;39.778;2.710;2023-09-18T00:05:00;49.33;;;7.47;;
54307;SDS011;40208;39.778;2.710;2023-09-18T00:07:45;61.10;;;9.00;;
54307;SDS011;40208;39.778;2.710;2023-09-18T00:10:30;58.65;;;8.30;;
54307;SDS011;40208;39.778;2.710;2023-09-18T00:13:15;54.17;;;8.25;;
54307;SDS011;40208;39.778;2.710;2023-09-18T00:15:59;49.92;;;7.15;;
54307;SDS011;40208;39.778;2.710;2023-09-18T00:18:45;39.10;;;6.07;;
54307;SDS011;40208;39.778;2.710;2023-09-18T00:21:30;44.38;;;8.32;;
54307;SDS011;40208;39.778;2.710;2023-09-18T00:24:15;47.15;;;7.28;;
54307;SDS011;40208;39.778;2.710;2023-09-18T00:27:01;38.42;;;6.97;;
54307;SDS011;40208;39.778;2.710;2023-09-18T00:29:46;46.72;;;7.38;;
54307;SDS011;40208;39.778;2.710;2023-09-18T00:32:31;57.88;;;9.25;;
54307;SDS011;40208;39.778;2.710;2023-09-18T00:35:16;45.10;;;6.72;;
54307;SDS011;40208;39.778;2.710;2023-09-18T00:38:01;36.95;;;5.35;;
54307;SDS011;40208;39.778;2.710;2023-09-18T00:40:48;31.38;;;5.47;;
54307;SDS011;40208;39.778;2.710;2023-09-18T00:43:32;41.00;;;6.13;;
54307;SDS011;40208;39.778;2.710;2023-09-18T00:46:17;44.78;;;7.32;;
54307;SDS011;40208;39.778;2.710;2023-09-18T00:49:03;40.80;;;5.95;;
54307;SDS011;40208;39.778;2.710;2023-09-18T00:51:49;31.63;;;6.25;;
54307;SDS011;40208;39.778;2.710;2023-09-18T00:54:35;44.55;;;6.95;;
54307;SDS011;40208;39.778;2.710;2023-09-18T00:57:23;44.20;;;6.15;;
54307;SDS011;40208;39.778;2.710;2023-09-18T01:00:08;46.05;;;8.13;;
54307;SDS011;40208;39.778;2.710;2023-09-18T01:02:53;50.88;;;6.70;;
54307;SDS011;40208;39.778;2.710;2023-09-18T01:05:38;44.22;;;6.43;;
54307;SDS011;40208;39.778;2.710;2023-09-18T01:08:23;43.70;;;7.05;;
54307;SDS011;40208;39.778;2.710;2023-09-18T01:17:42;37.90;;;7.18;;
54307;SDS011;40208;39.778;2.710;2023-09-18T01:20:28;54.53;;;6.13;;
54307;SDS011;40208;39.778;2.710;2023-09-18T01:23:13;37.50;;;5.18;;
54307;SDS011;40208;39.778;2.710;2023-09-18T01:25:58;36.90;;;5.40;;
54307;SDS011;40208;39.778;2.710;2023-09-18T01:28:42;28.15;;;4.45;;
54307;SDS011;40208;39.778;2.710;2023-09-18T01:31:27;38.95;;;5.07;;
54307;SDS011;40208;39.778;2.710;2023-09-18T01:34:12;27.10;;;4.15;;
54307;SDS011;40208;39.778;2.710;2023-09-18T01:36:57;18.90;;;4.47;;
54307;SDS011;40208;39.778;2.710;2023-09-18T01:39:42;20.88;;;3.63;;
54307;SDS011;40208;39.778;2.710;2023-09-18T01:42:28;21.25;;;4.22;;
54307;SDS011;40208;39.778;2.710;2023-09-18T01:45:13;28.65;;;4.45;;
54307;SDS011;40208;39.778;2.710;2023-09-18T01:47:58;24.02;;;4.97;;
54307;SDS011;40208;39.778;2.710;2023-09-18T01:50:43;33.38;;;6.03;;
54307;SDS011;40208;39.778;2.710;2023-09-18T01:53:28;34.85;;;6.28;;
54307;SDS011;40208;39.778;2.710;2023-09-18T01:56:13;37.72;;;5.72;;
54307;SDS011;40208;39.778;2.710;2023-09-18T01:58:58;29.15;;;5.03;;
54307;SDS011;40208;39.778;2.710;2023-09-18T02:01:43;29.00;;;4.82;;
54307;SDS011;40208;39.778;2.710;2023-09-18T02:04:28;41.30;;;6.13;;
54307;SDS011;40208;39.778;2.710;2023-09-18T02:07:13;41.50;;;6.65;;
54307;SDS011;40208;39.778;2.710;2023-09-18T02:09:58;53.85;;;8.18;;
54307;SDS011;40208;39.778;2.710;2023-09-18T02:12:43;70.43;;;8.73;;
54307;SDS011;40208;39.778;2.710;2023-09-18T02:15:28;56.95;;;8.73;;
54307;SDS011;40208;39.778;2.710;2023-09-18T02:18:15;72.55;;;10.15;;
54307;SDS011;40208;39.778;2.710;2023-09-18T02:21:00;53.83;;;7.90;;
54307;SDS011;40208;39.778;2.710;2023-09-18T02:23:45;72.78;;;11.38;;
54307;SDS011;40208;39.778;2.710;2023-09-18T02:26:30;71.15;;;10.93;;
54307;SDS011;40208;39.778;2.710;2023-09-18T02:29:15;73.90;;;10.85;;
54307;SDS011;40208;39.778;2.710;2023-09-18T02:32:00;59.55;;;9.90;;
54307;SDS011;40208;39.778;2.710;2023-09-18T02:34:45;61.90;;;10.15;;
54307;SDS011;40208;39.778;2.710;2023-09-18T02:37:30;61.85;;;10.40;;
54307;SDS011;40208;39.778;2.710;2023-09-18T02:40:14;77.45;;;10.75;;
54307;SDS011;40208;39.778;2.710;2023-09-18T02:42:59;69.85;;;11.50;;
54307;SDS011;40208;39.778;2.710;2023-09-18T02:45:44;62.58;;;10.18;;
54307;SDS011;40208;39.778;2.710;2023-09-18T02:48:30;68.95;;;9.82;;
54307;SDS011;40208;39.778;2.710;2023-09-18T02:51:15;69.03;;;10.45;;
54307;SDS011;40208;39.778;2.710;2023-09-18T02:53:59;77.22;;;10.65;;
54307;SDS011;40208;39.778;2.710;2023-09-18T02:56:44;76.13;;;12.05;;
54307;SDS011;40208;39.778;2.710;2023-09-18T02:59:29;77.70;;;11.02;;
54307;SDS011;40208;39.778;2.710;2023-09-18T03:02:15;52.38;;;9.50;;
54307;SDS011;40208;39.778;2.710;2023-09-18T03:05:00;75.55;;;9.38;;
54307;SDS011;40208;39.778;2.710;2023-09-18T03:07:44;63.95;;;10.25;;
54307;SDS011;40208;39.778;2.710;2023-09-18T03:10:32;60.55;;;9.43;;
54307;SDS011;40208;39.778;2.710;2023-09-18T03:13:18;63.70;;;9.13;;
54307;SDS011;40208;39.778;2.710;2023-09-18T03:16:03;69.78;;;10.05;;
54307;SDS011;40208;39.778;2.710;2023-09-18T03:18:48;74.00;;;10.75;;
54307;SDS011;40208;39.778;2.710;2023-09-18T03:21:33;82.00;;;10.32;;
54307;SDS011;40208;39.778;2.710;2023-09-18T03:24:19;62.25;;;9.80;;
54307;SDS011;40208;39.778;2.710;2023-09-18T03:27:04;65.82;;;10.85;;
54307;SDS011;40208;39.778;2.710;2023-09-18T03:29:49;62.53;;;9.48;;
54307;SDS011;40208;39.778;2.710;2023-09-18T03:32:34;68.70;;;10.02;;
54307;SDS011;40208;39.778;2.710;2023-09-18T03:35:20;97.47;;;12.20;;
54307;SDS011;40208;39.778;2.710;2023-09-18T03:38:05;59.38;;;9.90;;
54307;SDS011;40208;39.778;2.710;2023-09-18T03:40:50;71.40;;;10.52;;
54307;SDS011;40208;39.778;2.710;2023-09-18T03:43:35;61.42;;;9.35;;
54307;SDS011;40208;39.778;2.710;2023-09-18T03:46:20;59.85;;;9.68;;
54307;SDS011;40208;39.778;2.710;2023-09-18T03:49:05;188.70;;;16.27;;
54307;SDS011;40208;39.778;2.710;2023-09-18T03:51:50;57.05;;;9.63;;
54307;SDS011;40208;39.778;2.710;2023-09-18T03:54:35;43.78;;;9.32;;
54307;SDS011;40208;39.778;2.710;2023-09-18T03:57:20;54.85;;;9.30;;
54307;SDS011;40208;39.778;2.710;2023-09-18T04:00:05;51.42;;;8.90;;
54307;SDS011;40208;39.778;2.710;2023-09-18T04:02:51;50.53;;;10.38;;
54307;SDS011;40208;39.778;2.710;2023-09-18T04:05:36;57.67;;;8.50;;
54307;SDS011;40208;39.778;2.710;2023-09-18T04:08:21;58.63;;;10.18;;
54307;SDS011;40208;39.778;2.710;2023-09-18T04:11:06;46.67;;;8.02;;
54307;SDS011;40208;39.778;2.710;2023-09-18T04:13:53;49.90;;;9.23;;
54307;SDS011;40208;39.778;2.710;2023-09-18T04:16:38;55.25;;;9.23;;
54307;SDS011;40208;39.778;2.710;2023-09-18T04:19:26;57.15;;;9.57;;
54307;SDS011;40208;39.778;2.710;2023-09-18T04:22:12;58.75;;;8.48;;
54307;SDS011;40208;39.778;2.710;2023-09-18T04:24:57;50.65;;;8.20;;
54307;SDS011;40208;39.778;2.710;2023-09-18T04:27:42;46.47;;;7.05;;
54307;SDS011;40208;39.778;2.710;2023-09-18T04:30:26;50.45;;;9.00;;
54307;SDS011;40208;39.778;2.710;2023-09-18T04:33:12;49.03;;;7.28;;
54307;SDS011;40208;39.778;2.710;2023-09-18T04:35:57;45.95;;;7.50;;
54307;SDS011;40208;39.778;2.710;2023-09-18T04:38:42;40.60;;;6.03;;
54307;SDS011;40208;39.778;2.710;2023-09-18T04:41:27;46.50;;;6.75;;
54307;SDS011;40208;39.778;2.710;2023-09-18T04:44:12;44.10;;;8.25;;
54307;SDS011;40208;39.778;2.710;2023-09-18T04:46:58;44.40;;;7.47;;
54307;SDS011;40208;39.778;2.710;2023-09-18T04:49:43;62.95;;;7.97;;
54307;SDS011;40208;39.778;2.710;2023-09-18T04:52:31;47.63;;;7.75;;
54307;SDS011;40208;39.778;2.710;2023-09-18T04:55:16;42.10;;;7.35;;
54307;SDS011;40208;39.778;2.710;2023-09-18T04:58:01;47.88;;;7.07;;
54307;SDS011;40208;39.778;2.710;2023-09-18T05:00:54;38.05;;;7.97;;
54307;SDS011;40208;39.778;2.710;2023-09-18T05:03:43;43.50;;;7.18;;
54307;SDS011;40208;39.778;2.710;2023-09-18T05:06:27;37.85;;;6.93;;
54307;SDS011;40208;39.778;2.710;2023-09-18T05:09:13;31.02;;;6.75;;
54307;SDS011;40208;39.778;2.710;2023-09-18T05:11:59;37.63;;;6.15;;
54307;SDS011;40208;39.778;2.710;2023-09-18T05:14:43;26.98;;;5.82;;
54307;SDS011;40208;39.778;2.710;2023-09-18T05:17:41;41.22;;;5.85;;
54307;SDS011;40208;39.778;2.710;2023-09-18T05:20:39;32.42;;;6.75;;
54307;SDS011;40208;39.778;2.710;2023-09-18T05:23:24;26.73;;;4.55;;
54307;SDS011;40208;39.778;2.710;2023-09-18T05:26:09;37.00;;;5.72;;
54307;SDS011;40208;39.778;2.710;2023-09-18T05:28:55;26.35;;;4.18;;
54307;SDS011;40208;39.778;2.710;2023-09-18T05:31:40;27.08;;;4.40;;
54307;SDS011;40208;39.778;2.710;2023-09-18T05:34:25;19.40;;;4.32;;
54307;SDS011;40208;39.778;2.710;2023-09-18T05:37:09;20.52;;;4.10;;
54307;SDS011;40208;39.778;2.710;2023-09-18T05:39:55;18.15;;;3.33;;
54307;SDS011;40208;39.778;2.710;2023-09-18T05:42:41;22.33;;;4.15;;
54307;SDS011;40208;39.778;2.710;2023-09-18T05:45:29;22.88;;;4.30;;
54307;SDS011;40208;39.778;2.710;2023-09-18T05:48:15;18.95;;;4.18;;
54307;SDS011;40208;39.778;2.710;2023-09-18T05:51:00;18.27;;;3.22;;
54307;SDS011;40208;39.778;2.710;2023-09-18T05:53:45;25.42;;;4.18;;
54307;SDS011;40208;39.778;2.710;2023-09-18T05:56:30;23.70;;;4.70;;
54307;SDS011;40208;39.778;2.710;2023-09-18T05:59:14;26.67;;;5.50;;
54307;SDS011;40208;39.778;2.710;2023-09-18T06:02:01;18.35;;;4.28;;
54307;SDS011;40208;39.778;2.710;2023-09-18T06:04:46;18.65;;;4.82;;
54307;SDS011;40208;39.778;2.710;2023-09-18T06:07:30;23.48;;;4.47;;
54307;SDS011;40208;39.778;2.710;2023-09-18T06:10:16;19.15;;;3.90;;
54307;SDS011;40208;39.778;2.710;2023-09-18T06:13:01;31.23;;;5.05;;
54307;SDS011;40208;39.778;2.710;2023-09-18T06:15:48;16.15;;;4.75;;
54307;SDS011;40208;39.778;2.710;2023-09-18T06:18:33;30.63;;;5.22;;
54307;SDS011;40208;39.778;2.710;2023-09-18T06:21:19;24.10;;;4.68;;
54307;SDS011;40208;39.778;2.710;2023-09-18T06:24:04;26.60;;;4.43;;
54307;SDS011;40208;39.778;2.710;2023-09-18T06:26:50;19.13;;;3.47;;
54307;SDS011;40208;39.778;2.710;2023-09-18T06:29:35;16.95;;;3.63;;
54307;SDS011;40208;39.778;2.710;2023-09-18T06:32:22;18.38;;;3.47;;
54307;SDS011;40208;39.778;2.710;2023-09-18T06:35:07;15.63;;;3.42;;
54307;SDS011;40208;39.778;2.710;2023-09-18T06:37:52;13.30;;;2.63;;
54307;SDS011;40208;39.778;2.710;2023-09-18T06:40:42;13.48;;;2.75;;
54307;SDS011;40208;39.778;2.710;2023-09-18T06:43:27;10.35;;;2.42;;
54307;SDS011;40208;39.778;2.710;2023-09-18T06:46:12;13.48;;;2.40;;
54307;SDS011;40208;39.778;2.710;2023-09-18T06:48:57;16.38;;;2.25;;
54307;SDS011;40208;39.778;2.710;2023-09-18T06:51:44;14.50;;;2.22;;
54307;SDS011;40208;39.778;2.710;2023-09-18T06:54:29;9.55;;;2.58;;
54307;SDS011;40208;39.778;2.710;2023-09-18T06:57:13;14.00;;;2.28;;
54307;SDS011;40208;39.778;2.710;2023-09-18T06:59:58;15.73;;;2.25;;
54307;SDS011;40208;39.778;2.710;2023-09-18T07:02:43;13.85;;;1.90;;
54307;SDS011;40208;39.778;2.710;2023-09-18T07:05:28;9.32;;;2.60;;
54307;SDS011;40208;39.778;2.710;2023-09-18T07:08:13;11.38;;;2.03;;
54307;SDS011;40208;39.778;2.710;2023-09-18T07:10:59;12.52;;;2.95;;
54307;SDS011;40208;39.778;2.710;2023-09-18T07:13:44;12.68;;;2.47;;
54307;SDS011;40208;39.778;2.710;2023-09-18T07:16:29;9.25;;;2.88;;
54307;SDS011;40208;39.778;2.710;2023-09-18T07:19:14;10.30;;;2.50;;
54307;SDS011;40208;39.778;2.710;2023-09-18T07:22:01;18.70;;;3.53;;
54307;SDS011;40208;39.778;2.710;2023-09-18T07:24:46;30.05;;;8.65;;
54307;SDS011;40208;39.778;2.710;2023-09-18T07:27:31;217.25;;;75.45;;
54307;SDS011;40208;39.778;2.710;2023-09-18T07:30:16;326.77;;;121.50;;
54307;SDS011;40208;39.778;2.710;2023-09-18T07:33:02;146.93;;;53.55;;
54307;SDS011;40208;39.778;2.710;2023-09-18T07:35:47;97.47;;;34.45;;
54307;SDS011;40208;39.778;2.710;2023-09-18T07:38:32;349.88;;;161.07;;
54307;SDS011;40208;39.778;2.710;2023-09-18T07:41:17;123.60;;;53.03;;
54307;SDS011;40208;39.778;2.710;2023-09-18T07:44:03;211.63;;;99.10;;
54307;SDS011;40208;39.778;2.710;2023-09-18T07:46:48;42.22;;;17.05;;
54307;SDS011;40208;39.778;2.710;2023-09-18T07:49:33;37.55;;;9.48;;
54307;SDS011;40208;39.778;2.710;2023-09-18T07:52:18;43.63;;;9.55;;
54307;SDS011;40208;39.778;2.710;2023-09-18T07:55:03;29.15;;;9.18;;
54307;SDS011;40208;39.778;2.710;2023-09-18T07:57:48;33.90;;;8.40;;
54307;SDS011;40208;39.778;2.710;2023-09-18T08:00:33;22.02;;;6.32;;
54307;SDS011;40208;39.778;2.710;2023-09-18T08:03:18;31.38;;;5.30;;
54307;SDS011;40208;39.778;2.710;2023-09-18T08:06:03;16.48;;;4.60;;
54307;SDS011;40208;39.778;2.710;2023-09-18T08:08:49;14.02;;;4.40;;
54307;SDS011;40208;39.778;2.710;2023-09-18T08:11:35;14.65;;;6.57;;
54307;SDS011;40208;39.778;2.710;2023-09-18T08:14:23;34.17;;;12.48;;
54307;SDS011;40208;39.778;2.710;2023-09-18T08:17:08;27.45;;;7.85;;
54307;SDS011;40208;39.778;2.710;2023-09-18T08:19:53;30.35;;;8.40;;
54307;SDS011;40208;39.778;2.710;2023-09-18T08:22:39;24.55;;;5.47;;
54307;SDS011;40208;39.778;2.710;2023-09-18T08:25:24;19.15;;;4.05;;
54307;SDS011;40208;39.778;2.710;2023-09-18T08:28:09;24.80;;;4.60;;
54307;SDS011;40208;39.778;2.710;2023-09-18T08:30:54;24.08;;;4.45;;
54307;SDS011;40208;39.778;2.710;2023-09-18T08:33:39;16.42;;;4.13;;
54307;SDS011;40208;39.778;2.710;2023-09-18T08:36:23;23.77;;;8.48;;
54307;SDS011;40208;39.778;2.710;2023-09-18T08:39:08;24.98;;;10.05;;
54307;SDS011;40208;39.778;2.710;2023-09-18T08:41:55;23.92;;;7.20;;
54307;SDS011;40208;39.778;2.710;2023-09-18T08:44:48;22.55;;;5.88;;
54307;SDS011;40208;39.778;2.710;2023-09-18T08:47:35;16.30;;;4.63;;
54307;SDS011;40208;39.778;2.710;2023-09-18T08:50:23;20.92;;;4.90;;
54307;SDS011;40208;39.778;2.710;2023-09-18T08:53:09;42.05;;;5.30;;
54307;SDS011;40208;39.778;2.710;2023-09-18T08:55:55;25.35;;;4.90;;
54307;SDS011;40208;39.778;2.710;2023-09-18T08:58:42;18.48;;;5.35;;
54307;SDS011;40208;39.778;2.710;2023-09-18T09:01:28;16.52;;;6.65;;
54307;SDS011;40208;39.778;2.710;2023-09-18T09:04:13;15.55;;;4.78;;
54307;SDS011;40208;39.778;2.710;2023-09-18T09:06:59;17.00;;;5.22;;
54307;SDS011;40208;39.778;2.710;2023-09-18T09:09:44;19.88;;;4.82;;
54307;SDS011;40208;39.778;2.710;2023-09-18T09:15:54;14.77;;;3.58;;
54307;SDS011;40208;39.778;2.710;2023-09-18T09:18:47;12.95;;;3.40;;
54307;SDS011;40208;39.778;2.710;2023-09-18T09:21:40;10.35;;;3.03;;
54307;SDS011;40208;39.778;2.710;2023-09-18T09:24:38;10.45;;;3.47;;
54307;SDS011;40208;39.778;2.710;2023-09-18T09:27:27;16.23;;;3.20;;
54307;SDS011;40208;39.778;2.710;2023-09-18T09:30:12;12.57;;;2.78;;
54307;SDS011;40208;39.778;2.710;2023-09-18T09:33:04;12.43;;;3.58;;
54307;SDS011;40208;39.778;2.710;2023-09-18T09:35:51;18.65;;;3.85;;
54307;SDS011;40208;39.778;2.710;2023-09-18T09:38:36;13.30;;;4.63;;
54307;SDS011;40208;39.778;2.710;2023-09-18T09:41:21;11.10;;;4.00;;
54307;SDS011;40208;39.778;2.710;2023-09-18T09:44:05;11.80;;;3.33;;
54307;SDS011;40208;39.778;2.710;2023-09-18T09:46:50;16.67;;;3.40;;
54307;SDS011;40208;39.778;2.710;2023-09-18T09:49:45;11.40;;;3.80;;
54307;SDS011;40208;39.778;2.710;2023-09-18T09:52:32;22.75;;;3.88;;
54307;SDS011;40208;39.778;2.710;2023-09-18T09:58:10;13.40;;;2.92;;
54307;SDS011;40208;39.778;2.710;2023-09-18T10:00:56;12.30;;;3.17;;
54307;SDS011;40208;39.778;2.710;2023-09-18T10:03:46;17.08;;;3.20;;
54307;SDS011;40208;39.778;2.710;2023-09-18T10:06:31;13.85;;;2.90;;
54307;SDS011;40208;39.778;2.710;2023-09-18T10:09:19;23.77;;;3.05;;
54307;SDS011;40208;39.778;2.710;2023-09-18T10:12:06;9.43;;;2.67;;
54307;SDS011;40208;39.778;2.710;2023-09-18T10:14:55;13.48;;;2.90;;
54307;SDS011;40208;39.778;2.710;2023-09-18T10:17:42;15.18;;;3.35;;
54307;SDS011;40208;39.778;2.710;2023-09-18T10:20:29;13.73;;;3.17;;
54307;SDS011;40208;39.778;2.710;2023-09-18T10:23:31;10.05;;;3.10;;
54307;SDS011;40208;39.778;2.710;2023-09-18T10:26:41;15.82;;;2.78;;
54307;SDS011;40208;39.778;2.710;2023-09-18T10:29:48;13.98;;;3.13;;
54307;SDS011;40208;39.778;2.710;2023-09-18T10:32:35;12.32;;;3.20;;
54307;SDS011;40208;39.778;2.710;2023-09-18T10:35:29;14.05;;;3.13;;
54307;SDS011;40208;39.778;2.710;2023-09-18T10:38:15;14.73;;;3.08;;
54307;SDS011;40208;39.778;2.710;2023-09-18T10:41:01;13.32;;;3.65;;
54307;SDS011;40208;39.778;2.710;2023-09-18T10:43:51;10.68;;;2.97;;
54307;SDS011;40208;39.778;2.710;2023-09-18T10:49:22;12.23;;;2.78;;
54307;SDS011;40208;39.778;2.710;2023-09-18T10:52:11;21.83;;;3.95;;
54307;SDS011;40208;39.778;2.710;2023-09-18T10:54:57;20.45;;;3.40;;
54307;SDS011;40208;39.778;2.710;2023-09-18T10:57:51;13.43;;;3.45;;
54307;SDS011;40208;39.778;2.710;2023-09-18T11:00:37;16.25;;;3.70;;
54307;SDS011;40208;39.778;2.710;2023-09-18T11:03:22;32.92;;;4.55;;
54307;SDS011;40208;39.778;2.710;2023-09-18T11:06:08;26.73;;;4.15;;
54307;SDS011;40208;39.778;2.710;2023-09-18T11:08:59;16.73;;;3.85;;
54307;SDS011;40208;39.778;2.710;2023-09-18T11:11:57;16.42;;;3.90;;
54307;SDS011;40208;39.778;2.710;2023-09-18T11:14:50;15.15;;;3.83;;
54307;SDS011;40208;39.778;2.710;2023-09-18T11:17:42;19.08;;;3.70;;
54307;SDS011;40208;39.778;2.710;2023-09-18T11:20:28;20.30;;;4.22;;
54307;SDS011;40208;39.778;2.710;2023-09-18T11:25:57;25.48;;;4.55;;
54307;SDS011;40208;39.778;2.710;2023-09-18T11:28:42;11.10;;;3.63;;
54307;SDS011;40208;39.778;2.710;2023-09-18T11:34:47;16.33;;;3.88;;
54307;SDS011;40208;39.778;2.710;2023-09-18T11:37:36;14.10;;;4.40;;
54307;SDS011;40208;39.778;2.710;2023-09-18T11:40:28;13.95;;;4.15;;
54307;SDS011;40208;39.778;2.710;2023-09-18T11:43:25;17.88;;;4.28;;
54307;SDS011;40208;39.778;2.710;2023-09-18T11:46:17;18.63;;;3.83;;
54307;SDS011;40208;39.778;2.710;2023-09-18T11:49:02;20.25;;;3.92;;
54307;SDS011;40208;39.778;2.710;2023-09-18T11:51:50;14.55;;;4.45;;
54307;SDS011;40208;39.778;2.710;2023-09-18T11:54:35;14.60;;;3.67;;
54307;SDS011;40208;39.778;2.710;2023-09-18T11:57:19;12.80;;;4.72;;
54307;SDS011;40208;39.778;2.710;2023-09-18T12:00:05;17.52;;;4.50;;
54307;SDS011;40208;39.778;2.710;2023-09-18T12:02:56;19.25;;;4.85;;
54307;SDS011;40208;39.778;2.710;2023-09-18T12:05:42;21.63;;;5.25;;
54307;SDS011;40208;39.778;2.710;2023-09-18T12:08:28;19.17;;;5.30;;
54307;SDS011;40208;39.778;2.710;2023-09-18T12:11:15;25.52;;;6.32;;
54307;SDS011;40208;39.778;2.710;2023-09-18T12:14:03;21.77;;;5.10;;
54307;SDS011;40208;39.778;2.710;2023-09-18T12:16:48;18.58;;;4.35;;
54307;SDS011;40208;39.778;2.710;2023-09-18T12:19:34;17.35;;;4.90;;
54307;SDS011;40208;39.778;2.710;2023-09-18T12:22:23;18.52;;;4.05;;
54307;SDS011;40208;39.778;2.710;2023-09-18T12:25:11;16.73;;;4.35;;
54307;SDS011;40208;39.778;2.710;2023-09-18T12:27:58;20.80;;;4.05;;
54307;SDS011;40208;39.778;2.710;2023-09-18T12:30:44;18.40;;;3.88;;
54307;SDS011;40208;39.778;2.710;2023-09-18T12:33:34;15.02;;;3.90;;
54307;SDS011;40208;39.778;2.710;2023-09-18T12:36:20;21.27;;;4.90;;
54307;SDS011;40208;39.778;2.710;2023-09-18T12:39:05;23.55;;;5.03;;
54307;SDS011;40208;39.778;2.710;2023-09-18T12:41:50;22.35;;;4.20;;
54307;SDS011;40208;39.778;2.710;2023-09-18T12:44:35;29.48;;;5.82;;
54307;SDS011;40208;39.778;2.710;2023-09-18T12:47:20;19.73;;;4.82;;
54307;SDS011;40208;39.778;2.710;2023-09-18T12:50:05;25.92;;;5.40;;
54307;SDS011;40208;39.778;2.710;2023-09-18T12:53:12;20.27;;;4.70;;
54307;SDS011;40208;39.778;2.710;2023-09-18T12:59:09;21.48;;;5.75;;
54307;SDS011;40208;39.778;2.710;2023-09-18T13:01:54;19.00;;;4.18;;
54307;SDS011;40208;39.778;2.710;2023-09-18T13:04:39;14.27;;;3.67;;
54307;SDS011;40208;39.778;2.710;2023-09-18T13:07:25;16.55;;;3.67;;
54307;SDS011;40208;39.778;2.710;2023-09-18T13:10:11;12.05;;;3.63;;
54307;SDS011;40208;39.778;2.710;2023-09-18T13:12:57;14.13;;;4.03;;
54307;SDS011;40208;39.778;2.710;2023-09-18T13:15:43;17.58;;;4.30;;
54307;SDS011;40208;39.778;2.710;2023-09-18T13:18:31;13.38;;;3.63;;
54307;SDS011;40208;39.778;2.710;2023-09-18T13:21:16;15.43;;;3.22;;
54307;SDS011;40208;39.778;2.710;2023-09-18T13:24:04;16.80;;;4.47;;
54307;SDS011;40208;39.778;2.710;2023-09-18T13:26:52;17.23;;;4.53;;
54307;SDS011;40208;39.778;2.710;2023-09-18T13:29:38;16.98;;;3.80;;
54307;SDS011;40208;39.778;2.710;2023-09-18T13:32:23;13.00;;;3.60;;
54307;SDS011;40208;39.778;2.710;2023-09-18T13:35:08;12.90;;;4.13;;
54307;SDS011;40208;39.778;2.710;2023-09-18T13:37:53;17.05;;;4.38;;
54307;SDS011;40208;39.778;2.710;2023-09-18T13:40:41;24.55;;;3.67;;
54307;SDS011;40208;39.778;2.710;2023-09-18T13:43:27;17.60;;;3.50;;
54307;SDS011;40208;39.778;2.710;2023-09-18T13:46:16;11.88;;;3.53;;
54307;SDS011;40208;39.778;2.710;2023-09-18T13:49:02;9.88;;;3.55;;
54307;SDS011;40208;39.778;2.710;2023-09-18T13:51:48;13.75;;;3.38;;
54307;SDS011;40208;39.778;2.710;2023-09-18T13:54:34;8.50;;;3.10;;
54307;SDS011;40208;39.778;2.710;2023-09-18T13:57:19;14.32;;;3.47;;
54307;SDS011;40208;39.778;2.710;2023-09-18T14:00:05;16.00;;;3.58;;
54307;SDS011;40208;39.778;2.710;2023-09-18T14:02:51;13.70;;;3.63;;
54307;SDS011;40208;39.778;2.710;2023-09-18T14:05:35;10.13;;;3.35;;
54307;SDS011;40208;39.778;2.710;2023-09-18T14:08:20;10.90;;;3.53;;
54307;SDS011;40208;39.778;2.710;2023-09-18T14:11:05;17.85;;;3.88;;
54307;SDS011;40208;39.778;2.710;2023-09-18T14:13:50;15.18;;;4.68;;
54307;SDS011;40208;39.778;2.710;2023-09-18T14:16:35;14.85;;;4.57;;
54307;SDS011;40208;39.778;2.710;2023-09-18T14:19:19;18.35;;;4.78;;
54307;SDS011;40208;39.778;2.710;2023-09-18T14:22:08;17.63;;;6.28;;
54307;SDS011;40208;39.778;2.710;2023-09-18T14:24:53;9.80;;;5.45;;
54307;SDS011;40208;39.778;2.710;2023-09-18T14:27:39;17.08;;;6.85;;
54307;SDS011;40208;39.778;2.710;2023-09-18T14:30:23;16.38;;;5.45;;
54307;SDS011;40208;39.778;2.710;2023-09-18T14:33:13;12.73;;;5.13;;
54307;SDS011;40208;39.778;2.710;2023-09-18T14:35:59;15.70;;;5.45;;
54307;SDS011;40208;39.778;2.710;2023-09-18T14:38:44;17.25;;;5.65;;
54307;SDS011;40208;39.778;2.710;2023-09-18T14:41:29;12.68;;;5.18;;
54307;SDS011;40208;39.778;2.710;2023-09-18T14:44:14;16.67;;;5.38;;
54307;SDS011;40208;39.778;2.710;2023-09-18T14:46:59;12.32;;;3.42;;
54307;SDS011;40208;39.778;2.710;2023-09-18T14:49:44;10.02;;;4.35;;
54307;SDS011;40208;39.778;2.710;2023-09-18T14:52:31;12.15;;;4.22;;
54307;SDS011;40208;39.778;2.710;2023-09-18T14:55:16;11.00;;;4.15;;
54307;SDS011;40208;39.778;2.710;2023-09-18T14:58:01;11.63;;;4.60;;
54307;SDS011;40208;39.778;2.710;2023-09-18T15:00:46;13.35;;;4.68;;
54307;SDS011;40208;39.778;2.710;2023-09-18T15:03:30;11.82;;;5.30;;
54307;SDS011;40208;39.778;2.710;2023-09-18T15:06:15;11.20;;;4.05;;
54307;SDS011;40208;39.778;2.710;2023-09-18T15:09:00;11.88;;;4.22;;
54307;SDS011;40208;39.778;2.710;2023-09-18T15:11:47;10.70;;;5.38;;
54307;SDS011;40208;39.778;2.710;2023-09-18T15:14:32;13.57;;;4.65;;
54307;SDS011;40208;39.778;2.710;2023-09-18T15:17:16;15.10;;;4.75;;
54307;SDS011;40208;39.778;2.710;2023-09-18T15:20:01;13.02;;;4.72;;
54307;SDS011;40208;39.778;2.710;2023-09-18T15:22:47;10.98;;;4.72;;
54307;SDS011;40208;39.778;2.710;2023-09-18T15:25:31;14.50;;;7.13;;
54307;SDS011;40208;39.778;2.710;2023-09-18T15:28:20;13.63;;;5.50;;
54307;SDS011;40208;39.778;2.710;2023-09-18T15:31:04;16.60;;;10.13;;
54307;SDS011;40208;39.778;2.710;2023-09-18T15:33:49;18.92;;;10.07;;
54307;SDS011;40208;39.778;2.710;2023-09-18T15:36:34;26.23;;;14.90;;
54307;SDS011;40208;39.778;2.710;2023-09-18T15:39:19;26.58;;;15.23;;
54307;SDS011;40208;39.778;2.710;2023-09-18T15:42:04;22.63;;;12.95;;
54307;SDS011;40208;39.778;2.710;2023-09-18T15:44:49;26.40;;;14.95;;
54307;SDS011;40208;39.778;2.710;2023-09-18T15:47:33;21.27;;;9.20;;
54307;SDS011;40208;39.778;2.710;2023-09-18T15:50:18;12.50;;;7.53;;
54307;SDS011;40208;39.778;2.710;2023-09-18T15:53:03;22.23;;;12.60;;
54307;SDS011;40208;39.778;2.710;2023-09-18T15:55:48;16.33;;;7.85;;
54307;SDS011;40208;39.778;2.710;2023-09-18T15:58:33;15.82;;;7.57;;
54307;SDS011;40208;39.778;2.710;2023-09-18T16:01:19;21.52;;;10.25;;
54307;SDS011;40208;39.778;2.710;2023-09-18T16:04:04;16.92;;;11.43;;
54307;SDS011;40208;39.778;2.710;2023-09-18T16:06:49;23.15;;;11.90;;
54307;SDS011;40208;39.778;2.710;2023-09-18T16:09:34;93.63;;;25.20;;
54307;SDS011;40208;39.778;2.710;2023-09-18T16:12:19;39.90;;;13.23;;
54307;SDS011;40208;39.778;2.710;2023-09-18T16:15:04;43.05;;;16.70;;
54307;SDS011;40208;39.778;2.710;2023-09-18T16:17:49;20.05;;;9.90;;
54307;SDS011;40208;39.778;2.710;2023-09-18T16:20:34;21.52;;;12.85;;
54307;SDS011;40208;39.778;2.710;2023-09-18T16:23:18;24.23;;;11.82;;
54307;SDS011;40208;39.778;2.710;2023-09-18T16:26:03;43.78;;;22.98;;
54307;SDS011;40208;39.778;2.710;2023-09-18T16:28:49;50.80;;;30.80;;
54307;SDS011;40208;39.778;2.710;2023-09-18T16:31:33;53.72;;;31.40;;
54307;SDS011;40208;39.778;2.710;2023-09-18T16:34:18;57.03;;;36.15;;
54307;SDS011;40208;39.778;2.710;2023-09-18T16:37:06;52.88;;;31.17;;
54307;SDS011;40208;39.778;2.710;2023-09-18T16:39:51;30.20;;;17.45;;
54307;SDS011;40208;39.778;2.710;2023-09-18T16:42:36;28.10;;;16.98;;
54307;SDS011;40208;39.778;2.710;2023-09-18T16:45:21;43.05;;;26.15;;
54307;SDS011;40208;39.778;2.710;2023-09-18T16:48:06;31.92;;;19.35;;
54307;SDS011;40208;39.778;2.710;2023-09-18T16:50:51;22.00;;;12.73;;